createdAt,value
2018-10-21T00:01:58.682Z,90.30
2018-10-21T00:04:27.370Z,90.30
2018-10-21T00:06:56.071Z,90.40
2018-10-21T00:09:24.751Z,90.40
2018-10-21T00:11:53.442Z,90.50
2018-10-21T00:14:22.237Z,90.50
2018-10-21T00:16:50.968Z,90.60
2018-10-21T00:19:19.874Z,90.60
2018-10-21T00:21:48.597Z,90.60
2018-10-21T00:24:17.626Z,90.70
2018-10-21T00:26:46.679Z,90.90
2018-10-21T00:29:15.417Z,90.80
2018-10-21T00:31:44.206Z,90.90
2018-10-21T00:34:13.510Z,90.90
2018-10-21T00:36:42.255Z,90.90
2018-10-21T00:39:13.054Z,90.90
2018-10-21T00:41:42.701Z,91.00
2018-10-21T00:44:11.419Z,91.00
2018-10-21T00:46:40.264Z,91.00
2018-10-21T00:49:09.559Z,91.10
2018-10-21T00:51:38.470Z,91.00
2018-10-21T00:54:12.656Z,91.00
2018-10-21T00:56:41.389Z,91.10
2018-10-21T00:59:10.782Z,91.20
2018-10-21T01:01:39.360Z,91.20
2018-10-21T01:04:08.287Z,91.30
2018-10-21T01:06:37.059Z,91.20
2018-10-21T01:09:10.590Z,91.30
2018-10-21T01:11:40.147Z,91.50
2018-10-21T01:14:08.749Z,91.50
2018-10-21T01:16:37.423Z,91.50
2018-10-21T01:19:06.935Z,91.60
2018-10-21T01:21:36.102Z,91.60
2018-10-21T01:24:05.069Z,91.70
2018-10-21T01:26:33.609Z,91.70
2018-10-21T01:29:02.262Z,91.70
2018-10-21T01:31:30.895Z,91.80
2018-10-21T01:33:59.480Z,91.80
2018-10-21T01:36:28.325Z,91.80
2018-10-21T01:38:56.837Z,91.90
2018-10-21T01:41:25.817Z,91.90
2018-10-21T01:43:54.445Z,91.90
2018-10-21T01:46:23.147Z,92.00
2018-10-21T01:48:52.198Z,92.10
2018-10-21T01:51:20.784Z,91.90
2018-10-21T01:53:49.363Z,92.00
2018-10-21T01:56:18.022Z,92.10
2018-10-21T01:58:46.855Z,92.20
2018-10-21T02:01:15.616Z,92.20
2018-10-21T02:03:44.176Z,92.20
2018-10-21T02:06:12.757Z,92.20
2018-10-21T02:08:41.407Z,92.20
2018-10-21T02:11:10.049Z,92.20
2018-10-21T02:13:38.655Z,92.20
2018-10-21T02:16:07.293Z,92.30
2018-10-21T02:18:36.505Z,92.40
2018-10-21T02:21:05.188Z,92.40
2018-10-21T02:23:33.837Z,92.40
2018-10-21T02:26:02.480Z,92.50
2018-10-21T02:28:31.042Z,92.40
2018-10-21T02:30:59.956Z,92.50
2018-10-21T02:33:28.635Z,92.40
2018-10-21T02:35:57.147Z,92.50
2018-10-21T02:38:25.772Z,92.50
2018-10-21T02:41:36.969Z,92.50
2018-10-21T02:44:06.845Z,92.60
2018-10-21T02:46:36.001Z,92.50
2018-10-21T02:49:05.540Z,92.60
2018-10-21T02:51:34.275Z,92.70
2018-10-21T02:54:03.157Z,92.70
2018-10-21T02:56:31.798Z,92.70
2018-10-21T02:59:00.455Z,92.70
2018-10-21T03:01:29.485Z,92.60
2018-10-21T03:03:58.682Z,92.90
2018-10-21T03:06:27.596Z,92.80
2018-10-21T03:08:56.266Z,93.10
2018-10-21T03:11:24.863Z,92.80
2018-10-21T03:13:53.490Z,92.70
2018-10-21T03:16:22.926Z,92.70
2018-10-21T03:18:51.712Z,92.70
2018-10-21T03:21:20.357Z,92.70
2018-10-21T03:23:48.908Z,92.70
2018-10-21T03:26:17.482Z,92.70
2018-10-21T03:28:46.522Z,92.70
2018-10-21T03:31:15.083Z,92.90
2018-10-21T03:33:43.978Z,92.70
2018-10-21T03:36:12.550Z,92.70
2018-10-21T03:38:41.145Z,92.70
2018-10-21T03:41:09.714Z,92.70
2018-10-21T03:43:38.270Z,92.70
2018-10-21T03:46:06.992Z,92.60
2018-10-21T03:48:35.632Z,92.60
2018-10-21T03:51:04.268Z,92.60
2018-10-21T03:53:32.840Z,92.60
2018-10-21T03:56:01.460Z,92.50
2018-10-21T03:58:30.093Z,92.60
2018-10-21T04:00:58.805Z,92.60
2018-10-21T04:03:27.382Z,92.50
2018-10-21T04:05:56.314Z,92.50
2018-10-21T04:08:24.901Z,92.40
2018-10-21T04:10:53.441Z,92.50
2018-10-21T04:13:22.067Z,92.70
2018-10-21T04:15:50.719Z,92.50
2018-10-21T04:18:19.407Z,92.50
2018-10-21T04:20:47.992Z,92.50
2018-10-21T04:23:16.616Z,92.40
2018-10-21T04:25:45.220Z,92.30
2018-10-21T04:28:14.191Z,92.30
2018-10-21T04:30:43.367Z,92.30
2018-10-21T04:33:46.661Z,92.30
2018-10-21T04:36:19.314Z,92.40
2018-10-21T04:40:31.603Z,92.10
2018-10-21T04:43:00.630Z,92.30
2018-10-21T04:45:29.305Z,92.10
2018-10-21T04:47:57.883Z,92.30
2018-10-21T04:50:26.591Z,92.30
2018-10-21T04:52:55.880Z,92.40
2018-10-21T04:55:24.702Z,92.50
2018-10-21T04:57:54.879Z,92.40
2018-10-21T05:00:23.477Z,92.40
2018-10-21T05:02:52.195Z,92.40
2018-10-21T05:05:20.927Z,92.50
2018-10-21T05:07:49.541Z,92.60
2018-10-21T05:10:25.422Z,92.60
2018-10-21T05:12:54.189Z,92.60
2018-10-21T05:15:24.084Z,92.60
2018-10-21T05:17:53.549Z,92.50
2018-10-21T05:20:22.384Z,92.70
2018-10-21T05:22:50.972Z,92.40
2018-10-21T05:25:19.561Z,92.50
2018-10-21T05:27:48.263Z,92.50
2018-10-21T05:30:16.802Z,92.60
2018-10-21T05:32:45.379Z,92.60
2018-10-21T05:35:15.099Z,92.60
2018-10-21T05:37:43.804Z,92.70
2018-10-21T05:40:14.779Z,92.80
2018-10-21T05:42:43.823Z,92.80
2018-10-21T05:45:12.628Z,93.00
2018-10-21T05:47:41.666Z,93.10
2018-10-21T05:50:11.867Z,93.10
2018-10-21T05:52:40.860Z,93.20
2018-10-21T05:55:10.500Z,93.20
2018-10-21T05:57:39.175Z,93.20
2018-10-21T06:00:09.984Z,93.30
2018-10-21T06:02:38.820Z,93.30
2018-10-21T06:05:46.817Z,93.40
2018-10-21T06:08:15.713Z,93.40
2018-10-21T06:10:44.939Z,93.50
2018-10-21T06:13:13.991Z,93.50
2018-10-21T06:15:42.605Z,93.50
2018-10-21T06:18:14.315Z,93.60
2018-10-21T06:20:45.782Z,93.60
2018-10-21T06:23:14.774Z,93.70
2018-10-21T06:25:43.402Z,93.60
2018-10-21T06:28:12.112Z,93.60
2018-10-21T06:30:40.908Z,93.70
2018-10-21T06:33:09.746Z,93.70
2018-10-21T06:35:38.490Z,93.60
2018-10-21T06:38:07.419Z,93.60
2018-10-21T06:40:36.217Z,93.70
2018-10-21T06:43:05.080Z,93.70
2018-10-21T06:45:33.630Z,93.80
2018-10-21T06:48:03.061Z,93.70
2018-10-21T06:50:31.645Z,93.90
2018-10-21T06:53:00.257Z,93.80
2018-10-21T06:55:29.257Z,93.90
2018-10-21T06:57:57.873Z,93.90
2018-10-21T07:00:26.541Z,93.80
2018-10-21T07:02:55.169Z,93.90
2018-10-21T07:05:34.938Z,94.00
2018-10-21T07:08:03.535Z,94.00
2018-10-21T07:10:32.346Z,94.00
2018-10-21T07:13:01.056Z,94.10
2018-10-21T07:15:30.518Z,94.20
2018-10-21T07:17:59.422Z,94.20
2018-10-21T07:20:28.153Z,94.20
2018-10-21T07:22:56.815Z,94.20
2018-10-21T07:25:26.153Z,94.30
2018-10-21T07:27:54.971Z,94.30
2018-10-21T07:30:23.554Z,94.40
2018-10-21T07:32:52.342Z,94.50
2018-10-21T07:35:20.999Z,94.50
2018-10-21T07:37:49.684Z,94.50
2018-10-21T07:40:18.353Z,94.40
2018-10-21T07:42:46.906Z,94.40
2018-10-21T07:45:17.970Z,94.40
2018-10-21T07:47:46.638Z,94.50
2018-10-21T07:50:15.495Z,94.40
2018-10-21T07:52:44.147Z,94.50
2018-10-21T07:55:17.535Z,94.60
2018-10-21T07:57:46.396Z,94.70
2018-10-21T08:00:15.103Z,94.50
2018-10-21T08:02:43.800Z,94.30
2018-10-21T08:05:24.146Z,94.40
2018-10-21T08:08:22.301Z,94.60
2018-10-21T08:10:51.013Z,94.60
2018-10-21T08:13:23.038Z,94.60
2018-10-21T08:15:51.862Z,94.50
2018-10-21T08:18:20.523Z,94.70
2018-10-21T08:20:50.206Z,94.50
2018-10-21T08:23:19.653Z,94.60
2018-10-21T08:25:49.937Z,94.60
2018-10-21T08:28:18.704Z,94.50
2018-10-21T08:30:47.193Z,94.50
2018-10-21T08:33:16.637Z,94.40
2018-10-21T08:35:46.069Z,94.40
2018-10-21T08:38:14.756Z,94.20
2018-10-21T08:40:44.820Z,94.30
2018-10-21T08:43:13.609Z,94.10
2018-10-21T08:45:42.354Z,94.00
2018-10-21T08:48:11.056Z,93.80
2018-10-21T08:50:39.954Z,93.70
2018-10-21T08:53:09.796Z,93.90
2018-10-21T08:55:38.824Z,93.90
2018-10-21T08:58:07.534Z,94.10
2018-10-21T09:00:36.633Z,93.80
2018-10-21T09:03:05.962Z,93.90
2018-10-21T09:05:35.226Z,93.60
2018-10-21T09:08:04.008Z,93.50
2018-10-21T09:10:32.911Z,93.60
2018-10-21T09:13:02.896Z,93.70
2018-10-21T09:15:31.727Z,93.70
2018-10-21T09:18:01.250Z,93.50
2018-10-21T09:20:30.296Z,93.40
2018-10-21T09:22:58.997Z,93.10
2018-10-21T09:25:31.811Z,93.40
2018-10-21T09:28:02.821Z,93.10
2018-10-21T09:30:32.677Z,92.90
2018-10-21T09:33:01.336Z,92.70
2018-10-21T09:35:31.048Z,92.60
2018-10-21T09:38:00.190Z,92.30
2018-10-21T09:40:29.171Z,92.30
2018-10-21T09:42:58.099Z,92.10
2018-10-21T09:45:27.070Z,92.10
2018-10-21T09:47:56.334Z,92.10
2018-10-21T09:50:25.083Z,92.10
2018-10-21T09:52:53.926Z,92.30
2018-10-21T09:55:24.693Z,92.00
2018-10-21T09:57:53.419Z,91.80
2018-10-21T10:00:27.591Z,91.50
2018-10-21T10:03:01.805Z,91.20
2018-10-21T10:05:30.758Z,91.50
2018-10-21T10:07:59.663Z,91.50
2018-10-21T10:10:28.564Z,91.30
2018-10-21T10:12:57.534Z,90.70
2018-10-21T10:15:26.211Z,91.00
2018-10-21T10:17:55.265Z,90.40
2018-10-21T10:20:24.139Z,90.10
2018-10-21T10:22:54.097Z,90.10
2018-10-21T10:25:22.856Z,90.30
2018-10-21T10:27:54.186Z,90.50
2018-10-21T10:30:22.843Z,90.30
2018-10-21T10:32:51.380Z,90.40
2018-10-21T10:35:20.528Z,90.40
2018-10-21T10:37:49.284Z,90.30
2018-10-21T10:40:18.040Z,90.30
2018-10-21T10:42:46.664Z,90.00
2018-10-21T10:45:15.249Z,90.20
2018-10-21T10:47:44.010Z,89.30
2018-10-21T10:50:12.911Z,88.90
2018-10-21T10:52:41.594Z,87.90
2018-10-21T10:55:10.564Z,87.70
2018-10-21T10:57:39.346Z,87.90
2018-10-21T11:00:09.690Z,86.30
2018-10-21T11:02:38.292Z,85.80
2018-10-21T11:05:08.108Z,85.60
2018-10-21T11:07:36.841Z,86.30
2018-10-21T11:10:07.029Z,85.90
2018-10-21T11:12:35.538Z,86.50
2018-10-21T11:15:04.381Z,87.40
2018-10-21T11:17:33.016Z,86.60
2018-10-21T11:20:01.883Z,85.10
2018-10-21T11:22:30.699Z,85.10
2018-10-21T11:24:59.968Z,86.30
2018-10-21T11:27:28.668Z,85.20
2018-10-21T11:29:57.374Z,85.90
2018-10-21T11:32:25.957Z,82.30
2018-10-21T11:34:54.637Z,81.80
2018-10-21T11:37:23.300Z,81.60
2018-10-21T11:39:52.051Z,80.60
2018-10-21T11:42:20.805Z,81.00
2018-10-21T11:44:49.410Z,81.80
2018-10-21T11:47:18.208Z,81.70
2018-10-21T11:49:46.903Z,81.00
2018-10-21T11:52:15.752Z,80.30
2018-10-21T11:54:44.463Z,80.50
2018-10-21T11:57:13.261Z,81.00
2018-10-21T11:59:42.119Z,80.00
2018-10-21T12:02:10.928Z,80.20
2018-10-21T12:04:39.858Z,79.10
2018-10-21T12:07:08.818Z,78.70
2018-10-21T12:09:37.603Z,79.50
2018-10-21T12:12:06.349Z,82.70
2018-10-21T12:14:35.554Z,80.50
2018-10-21T12:17:04.336Z,79.90
2018-10-21T12:19:33.099Z,82.70
2018-10-21T12:22:01.961Z,86.60
2018-10-21T12:24:30.814Z,82.10
2018-10-21T12:26:59.599Z,75.90
2018-10-21T12:29:28.377Z,75.80
2018-10-21T12:31:57.681Z,74.90
2018-10-21T12:34:26.450Z,73.60
2018-10-21T12:36:55.178Z,76.40
2018-10-21T12:39:23.869Z,76.20
2018-10-21T12:41:52.605Z,72.70
2018-10-21T12:44:21.280Z,71.50
2018-10-21T12:46:50.405Z,71.50
2018-10-21T12:49:19.115Z,71.40
2018-10-21T12:51:47.617Z,71.80
2018-10-21T12:54:16.341Z,71.00
2018-10-21T12:56:45.026Z,70.20
2018-10-21T12:59:13.634Z,70.50
2018-10-21T13:01:42.167Z,70.40
2018-10-21T13:04:10.835Z,70.40
2018-10-21T13:06:39.461Z,70.20
2018-10-21T13:09:08.652Z,67.40
2018-10-21T13:11:37.389Z,67.40
2018-10-21T13:14:06.010Z,67.40
2018-10-21T13:16:34.796Z,67.70
2018-10-21T13:19:03.545Z,68.20
2018-10-21T13:21:32.940Z,69.00
2018-10-21T13:24:01.585Z,68.30
2018-10-21T13:26:30.238Z,68.00
2018-10-21T13:28:58.991Z,68.00
2018-10-21T13:31:27.618Z,67.70
2018-10-21T13:33:56.338Z,67.60
2018-10-21T13:36:24.996Z,67.60
2018-10-21T13:38:53.597Z,67.40
2018-10-21T13:41:22.291Z,67.20
2018-10-21T13:43:51.034Z,67.90
2018-10-21T13:46:24.044Z,67.90
2018-10-21T13:48:52.625Z,68.00
2018-10-21T13:51:21.508Z,67.60
2018-10-21T13:53:50.341Z,67.90
2018-10-21T13:56:19.200Z,68.10
2018-10-21T13:58:47.930Z,67.90
2018-10-21T14:01:16.978Z,67.60
2018-10-21T14:03:46.804Z,67.40
2018-10-21T14:06:15.557Z,67.50
2018-10-21T14:08:44.274Z,67.50
2018-10-21T14:11:13.202Z,69.00
2018-10-21T14:13:41.844Z,68.70
2018-10-21T14:16:11.425Z,68.80
2018-10-21T14:18:40.198Z,69.00
2018-10-21T14:21:08.951Z,68.80
2018-10-21T14:23:37.665Z,69.30
2018-10-21T14:26:06.956Z,68.50
2018-10-21T14:28:35.710Z,68.30
2018-10-21T14:31:04.547Z,68.70
2018-10-21T14:33:33.440Z,68.90
2018-10-21T14:36:02.515Z,68.00
2018-10-21T14:38:31.275Z,68.10
2018-10-21T14:41:00.062Z,68.20
2018-10-21T14:43:28.827Z,68.00
2018-10-21T14:46:13.480Z,68.00
2018-10-21T14:48:41.980Z,67.90
2018-10-21T14:51:10.832Z,68.00
2018-10-21T14:53:39.414Z,68.20
2018-10-21T14:56:08.217Z,68.90
2018-10-21T14:58:37.341Z,68.10
2018-10-21T15:01:06.145Z,67.90
2018-10-21T15:03:35.229Z,68.20
2018-10-21T15:06:03.816Z,68.30
2018-10-21T15:08:32.394Z,68.40
2018-10-21T15:11:01.823Z,68.00
2018-10-21T15:13:30.517Z,67.90
2018-10-21T15:15:59.564Z,67.30
2018-10-21T15:18:28.280Z,68.00
2018-10-21T15:20:57.138Z,68.00
2018-10-21T15:23:25.878Z,67.80
2018-10-21T15:25:55.163Z,67.80
2018-10-21T15:28:23.879Z,67.80
2018-10-21T15:30:52.839Z,68.20
2018-10-21T15:33:21.498Z,68.20
2018-10-21T15:35:50.310Z,68.10
2018-10-21T15:38:18.961Z,68.20
2018-10-21T15:40:47.907Z,68.10
2018-10-21T15:43:16.412Z,68.10
2018-10-21T15:45:45.920Z,68.10
2018-10-21T15:48:14.719Z,68.10
2018-10-21T15:50:43.524Z,68.60
2018-10-21T15:53:13.050Z,68.20
2018-10-21T15:55:42.615Z,68.20
2018-10-21T15:58:11.632Z,68.20
2018-10-21T16:00:40.223Z,67.90
2018-10-21T16:03:08.913Z,67.80
2018-10-21T16:05:37.739Z,67.60
2018-10-21T16:08:07.092Z,68.00
2018-10-21T16:10:35.696Z,67.80
2018-10-21T16:13:05.432Z,67.80
2018-10-21T16:15:34.336Z,67.50
2018-10-21T16:18:02.946Z,67.30
2018-10-21T16:20:31.701Z,67.30
2018-10-21T16:23:00.505Z,67.20
2018-10-21T16:25:29.217Z,67.50
2018-10-21T16:27:57.938Z,67.50
2018-10-21T16:30:26.688Z,67.30
2018-10-21T16:32:55.651Z,66.80
2018-10-21T16:35:24.529Z,66.70
2018-10-21T16:37:53.222Z,66.60
2018-10-21T16:40:21.959Z,66.70
2018-10-21T16:42:50.997Z,66.80
2018-10-21T16:45:20.253Z,66.80
2018-10-21T16:47:49.184Z,66.80
2018-10-21T16:50:18.738Z,66.80
2018-10-21T16:52:47.883Z,67.00
2018-10-21T16:55:17.392Z,67.00
2018-10-21T16:57:46.312Z,67.10
2018-10-21T17:00:18.009Z,67.10
2018-10-21T17:02:46.938Z,67.30
2018-10-21T17:05:15.844Z,67.30
2018-10-21T17:07:45.127Z,67.50
2018-10-21T17:10:14.321Z,67.40
2018-10-21T17:12:42.707Z,68.40
2018-10-21T17:15:12.063Z,68.00
2018-10-21T17:17:41.536Z,68.20
2018-10-21T17:20:12.018Z,67.90
2018-10-21T17:22:43.025Z,68.30
2018-10-21T17:25:11.998Z,68.20
2018-10-21T17:27:40.838Z,68.50
2018-10-21T17:30:12.095Z,68.40
2018-10-21T17:32:40.820Z,68.40
2018-10-21T17:35:10.415Z,68.70
2018-10-21T17:37:39.634Z,68.70
2018-10-21T17:40:09.680Z,69.00
2018-10-21T17:42:38.584Z,69.00
2018-10-21T17:45:10.300Z,69.10
2018-10-21T17:47:39.096Z,69.20
2018-10-21T17:50:09.915Z,69.20
2018-10-21T17:52:38.672Z,69.30
2018-10-21T17:55:07.402Z,69.40
2018-10-21T17:57:36.325Z,69.70
2018-10-21T18:00:05.806Z,69.80
2018-10-21T18:02:34.528Z,69.80
2018-10-21T18:05:03.646Z,70.00
2018-10-21T18:07:32.793Z,70.20
2018-10-21T18:10:01.806Z,70.30
2018-10-21T18:12:30.869Z,70.50
2018-10-21T18:14:59.584Z,70.50
2018-10-21T18:17:28.327Z,70.60
2018-10-21T18:19:57.557Z,70.90
2018-10-21T18:22:26.926Z,71.10
2018-10-21T18:24:55.623Z,71.20
2018-10-21T18:27:24.576Z,71.30
2018-10-21T18:29:53.574Z,71.20
2018-10-21T18:32:22.367Z,71.40
2018-10-21T18:34:51.047Z,71.50
2018-10-21T18:37:19.795Z,71.60
2018-10-21T18:39:48.731Z,71.70
2018-10-21T18:42:17.893Z,72.00
2018-10-21T18:44:46.760Z,72.30
2018-10-21T18:47:16.246Z,72.50
2018-10-21T18:49:46.409Z,72.90
2018-10-21T18:52:16.666Z,73.60
2018-10-21T18:54:46.301Z,74.00
2018-10-21T18:57:15.097Z,74.30
2018-10-21T18:59:43.970Z,74.50
2018-10-21T19:02:13.367Z,74.80
2018-10-21T19:04:42.167Z,74.90
2018-10-21T19:07:11.079Z,75.20
2018-10-21T19:09:40.187Z,75.30
2018-10-21T19:12:09.192Z,75.40
2018-10-21T19:14:38.074Z,75.50
2018-10-21T19:17:06.795Z,75.50
2018-10-21T19:19:35.543Z,75.50
2018-10-21T19:22:04.479Z,75.40
2018-10-21T19:24:33.115Z,75.10
2018-10-21T19:27:01.844Z,74.90
2018-10-21T19:29:30.577Z,75.00
2018-10-21T19:31:59.612Z,74.80
2018-10-21T19:34:28.517Z,74.90
2018-10-21T19:36:57.124Z,75.00
2018-10-21T19:39:25.889Z,75.00
2018-10-21T19:41:55.129Z,75.10
2018-10-21T19:44:23.735Z,75.20
2018-10-21T19:46:52.579Z,75.30
2018-10-21T19:49:21.353Z,75.30
2018-10-21T19:51:50.094Z,75.40
2018-10-21T19:54:19.078Z,75.50
2018-10-21T19:56:48.032Z,75.70
2018-10-21T19:59:16.702Z,75.80
2018-10-21T20:01:45.556Z,75.90
2018-10-21T20:04:14.451Z,75.90
2018-10-21T20:06:43.017Z,76.20
2018-10-21T20:09:11.897Z,76.30
2018-10-21T20:11:41.378Z,76.40
2018-10-21T20:14:10.103Z,76.40
2018-10-21T20:16:38.827Z,76.40
2018-10-21T20:19:07.814Z,76.60
2018-10-21T20:21:36.570Z,76.50
2018-10-21T20:24:05.506Z,76.80
2018-10-21T20:26:35.028Z,76.90
2018-10-21T20:29:03.756Z,77.10
2018-10-21T20:31:32.503Z,77.30
2018-10-21T20:34:02.989Z,77.30
2018-10-21T20:36:31.841Z,77.50
2018-10-21T20:39:00.533Z,77.50
2018-10-21T20:41:29.194Z,77.70
2018-10-21T20:43:57.980Z,77.70
2018-10-21T20:46:26.932Z,78.00
2018-10-21T20:48:55.612Z,78.10
2018-10-21T20:51:24.464Z,78.30
2018-10-21T20:53:53.740Z,78.50
2018-10-21T20:56:22.534Z,78.50
2018-10-21T20:58:51.345Z,78.60
2018-10-21T21:01:19.997Z,78.80
2018-10-21T21:03:48.679Z,78.70
2018-10-21T21:06:17.514Z,79.10
2018-10-21T21:08:46.071Z,79.30
2018-10-21T21:11:14.896Z,79.10
2018-10-21T21:13:43.614Z,79.10
2018-10-21T21:16:12.828Z,79.40
2018-10-21T21:18:41.527Z,79.30
2018-10-21T21:21:10.332Z,79.70
2018-10-21T21:23:39.040Z,79.80
2018-10-21T21:26:07.820Z,79.90
2018-10-21T21:28:36.528Z,80.20
2018-10-21T21:31:05.344Z,80.20
2018-10-21T21:33:34.007Z,80.40
2018-10-21T21:36:02.649Z,80.60
2018-10-21T21:38:31.813Z,80.90
2018-10-21T21:41:00.430Z,81.50
2018-10-21T21:43:29.126Z,82.10
2018-10-21T21:45:57.807Z,82.40
2018-10-21T21:48:26.664Z,82.60
2018-10-21T21:50:55.433Z,82.70
2018-10-21T21:53:24.364Z,82.80
2018-10-21T21:55:53.734Z,83.00
2018-10-21T21:58:22.546Z,83.30
2018-10-21T22:00:51.337Z,83.60
2018-10-21T22:03:20.153Z,83.50
2018-10-21T22:05:48.887Z,83.80
2018-10-21T22:08:21.423Z,83.90
2018-10-21T22:10:50.275Z,84.20
2018-10-21T22:13:19.023Z,84.40
2018-10-21T22:15:47.770Z,84.50
2018-10-21T22:18:16.771Z,84.70
2018-10-21T22:20:45.805Z,84.80
2018-10-21T22:23:14.654Z,84.90
2018-10-21T22:25:43.532Z,85.00
2018-10-21T22:28:12.693Z,85.30
2018-10-21T22:30:41.803Z,85.40
2018-10-21T22:33:10.542Z,85.50
2018-10-21T22:35:39.292Z,85.80
2018-10-21T22:38:08.169Z,85.90
2018-10-21T22:40:36.940Z,85.90
2018-10-21T22:43:06.192Z,86.20
2018-10-21T22:45:34.942Z,86.40
2018-10-21T22:48:07.563Z,86.60
2018-10-21T22:50:36.447Z,86.70
2018-10-21T22:53:09.850Z,86.80
2018-10-21T22:55:38.898Z,87.00
2018-10-21T22:58:07.809Z,87.20
2018-10-21T23:00:37.062Z,87.70
2018-10-21T23:03:05.863Z,87.90
2018-10-21T23:05:34.592Z,88.10
2018-10-21T23:08:03.918Z,88.40
2018-10-21T23:10:32.609Z,88.60
2018-10-21T23:13:01.253Z,89.00
2018-10-21T23:15:30.013Z,89.20
2018-10-21T23:17:58.727Z,89.70
2018-10-21T23:20:27.400Z,89.90
2018-10-21T23:22:56.145Z,90.10
2018-10-21T23:25:24.826Z,90.30
2018-10-21T23:27:53.600Z,90.40
2018-10-21T23:30:23.048Z,90.50
2018-10-21T23:32:51.701Z,90.70
2018-10-21T23:35:20.369Z,90.80
2018-10-21T23:37:49.297Z,90.90
2018-10-21T23:40:18.806Z,91.00
2018-10-21T23:42:47.402Z,91.20
2018-10-21T23:45:16.040Z,91.30
2018-10-21T23:47:44.789Z,91.50
2018-10-21T23:50:13.503Z,91.60
2018-10-21T23:52:42.098Z,92.10
2018-10-21T23:55:11.144Z,91.90
2018-10-21T23:57:39.756Z,92.00
